Terminal Aerodrome Forecast
Issued by NWS

Home | Current Version | Previous Version | Text Only | Print | Product List | Glossary On
Versions: 1 2 3 4 5 6 7 8 9 10 11 12
000
FTUS41 KBTV 281134
TAFRUT
TAF
KRUT 281134Z 2812/2912 VRB03KT P6SM FEW150
     FM281500 28004KT P6SM BKN070
     FM282100 31006KT P6SM -SHRA BKN050 BKN070
     FM290100 00000KT P6SM BKN120
      AMD LTD TO CLD VIS AND WIND=

USA.gov is the U.S. government's official web portal to all federal, state and local government web resources and services.